Time;durP1;ratioP1;P1;durP2;ratioP2;P2;SDS_P1;SDS_P2;PMS_P1;PMS_P2;Temp;Humidity;BMP_temperature;BMP_pressure;BME280_temperature;BME280_humidity;BME280_pressure;Samples;Min_cycle;Max_cycle;Signal;HPM_P1;HPM_P2
2022/09/24 00:02:22;;;;;;;6.18;5.53;;;;;;;14.31;71.92;95378.72;5095620;28;20687;-81
2022/09/24 00:04:49;;;;;;;5.88;5.38;;;;;;;14.36;71.21;95386.69;5082076;28;20217;-81
2022/09/24 00:07:16;;;;;;;9.32;5.60;;;;;;;14.37;71.74;95372.75;5077343;28;20282;-81
2022/09/24 00:09:42;;;;;;;5.43;4.93;;;;;;;14.46;71.51;95366.34;5076309;28;20201;-81
2022/09/24 00:12:11;;;;;;;5.10;4.63;;;;;;;14.45;71.41;95357.00;5075185;28;20306;-81
2022/09/24 00:14:38;;;;;;;5.13;4.60;;;;;;;14.47;70.93;95367.94;5075924;28;20224;-80
2022/09/24 00:17:04;;;;;;;5.03;4.60;;;;;;;14.52;70.71;95362.94;5075460;28;20286;-80
2022/09/24 00:19:31;;;;;;;5.63;4.60;;;;;;;14.56;70.61;95365.13;5075218;28;20262;-81
2022/09/24 00:21:58;;;;;;;4.75;4.35;;;;;;;14.43;71.38;95363.41;5076889;28;20219;-83
2022/09/24 00:27:09;;;;;;;6.50;4.55;;;;;;;14.46;70.89;95358.56;5077017;28;20242;-82
2022/09/24 00:29:36;;;;;;;4.63;4.22;;;;;;;14.49;70.87;95360.75;5075474;28;20580;-83
2022/09/24 00:32:03;;;;;;;4.75;4.35;;;;;;;14.56;70.65;95365.94;5074833;28;20281;-83
2022/09/24 00:34:30;;;;;;;4.55;3.90;;;;;;;14.57;70.21;95361.53;5075110;28;20220;-82
2022/09/24 00:36:57;;;;;;;4.60;4.13;;;;;;;14.57;70.02;95357.16;5074460;28;20311;-83
2022/09/24 00:39:25;;;;;;;4.40;3.78;;;;;;;14.60;70.34;95361.94;5075364;28;20231;-83
2022/09/24 00:41:52;;;;;;;4.07;3.65;;;;;;;14.63;70.34;95352.91;5075161;28;20197;-82
2022/09/24 00:44:46;;;;;;;5.07;3.63;;;;;;;14.65;69.87;95353.50;5073727;28;20282;-82
2022/09/24 00:47:17;;;;;;;3.58;3.28;;;;;;;14.63;70.00;95347.72;5073252;28;20232;-82
2022/09/24 00:49:45;;;;;;;5.50;4.00;;;;;;;14.63;70.06;95345.16;5073773;28;20311;-82
2022/09/24 00:52:11;;;;;;;4.40;3.58;;;;;;;14.65;69.73;95343.94;5073579;28;20235;-82
2022/09/24 00:54:42;;;;;;;6.45;3.85;;;;;;;14.68;69.71;95340.94;5073586;28;20221;-82
2022/09/24 00:57:08;;;;;;;3.65;3.13;;;;;;;14.66;70.11;95347.31;5073769;28;20731;-82
2022/09/24 00:59:35;;;;;;;4.03;3.42;;;;;;;14.64;70.04;95344.94;5073835;28;20212;-82
2022/09/24 01:02:04;;;;;;;4.38;3.70;;;;;;;14.66;69.80;95340.34;5073961;28;20201;-82
2022/09/24 01:04:30;;;;;;;4.07;3.47;;;;;;;14.68;70.01;95334.97;5086840;28;20219;-83
2022/09/24 01:06:58;;;;;;;4.32;3.85;;;;;;;14.64;69.85;95329.38;5093487;28;20232;-82
2022/09/24 01:09:27;;;;;;;3.55;3.25;;;;;;;14.68;70.10;95332.38;5093859;28;20231;-82
2022/09/24 01:12:10;;;;;;;3.50;3.20;;;;;;;14.64;70.20;95328.59;5093736;28;20216;-82
2022/09/24 01:14:49;;;;;;;3.60;3.30;;;;;;;14.62;70.29;95328.03;5093884;28;20219;-83
2022/09/24 01:17:25;;;;;;;4.22;3.40;;;;;;;14.62;70.16;95326.25;5093345;28;20268;-82
2022/09/24 01:20:16;;;;;;;3.58;3.28;;;;;;;14.54;70.59;95323.88;5093783;28;20199;-82
2022/09/24 01:22:59;;;;;;;4.28;3.40;;;;;;;14.57;70.66;95322.69;5082831;28;20197;-82
2022/09/24 01:25:35;;;;;;;4.97;3.58;;;;;;;14.54;70.60;95313.50;5073440;28;20224;-82
2022/09/24 01:28:27;;;;;;;3.67;3.10;;;;;;;14.53;70.80;95311.94;5073427;28;20254;-82
2022/09/24 01:31:01;;;;;;;3.97;3.60;;;;;;;14.58;70.31;95309.50;5075074;28;20274;-83
2022/09/24 01:33:29;;;;;;;5.03;3.60;;;;;;;14.60;70.17;95314.50;5075083;28;20216;-82
2022/09/24 01:36:00;;;;;;;5.68;3.75;;;;;;;14.60;70.09;95304.13;5075042;28;20274;-82
2022/09/24 01:38:30;;;;;;;4.10;3.50;;;;;;;14.60;70.22;95310.09;5075428;28;20200;-82
2022/09/24 01:41:00;;;;;;;6.13;3.53;;;;;;;14.60;70.27;95304.91;5075619;28;20193;-82
2022/09/24 01:43:29;;;;;;;3.95;3.65;;;;;;;14.61;70.77;95305.72;5075185;28;20319;-82
2022/09/24 01:46:00;;;;;;;3.80;3.50;;;;;;;14.59;70.39;95300.75;5075001;28;20263;-82
2022/09/24 01:48:27;;;;;;;4.97;3.38;;;;;;;14.55;70.58;95296.97;5075335;28;20304;-82
2022/09/24 01:51:00;;;;;;;3.90;3.28;;;;;;;14.51;70.97;95290.59;5075325;28;20833;-82
2022/09/24 01:53:29;;;;;;;3.75;3.10;;;;;;;14.55;70.74;95293.59;5075698;28;20242;-82
2022/09/24 01:56:00;;;;;;;3.60;3.30;;;;;;;14.56;70.63;95285.59;5075161;28;20251;-82
2022/09/24 01:58:33;;;;;;;4.07;3.33;;;;;;;14.59;70.09;95290.38;5075097;28;20235;-82
2022/09/24 02:01:06;;;;;;;3.58;3.17;;;;;;;14.61;69.82;95285.00;5074809;28;20262;-83
2022/09/24 02:03:36;;;;;;;3.72;3.20;;;;;;;14.64;69.63;95279.38;5079942;28;20219;-82
2022/09/24 02:06:08;;;;;;;3.95;2.90;;;;;;;14.64;69.96;95281.94;5094212;28;20352;-82
2022/09/24 02:08:39;;;;;;;3.75;2.90;;;;;;;14.64;69.77;95281.94;5094953;28;20247;-82
2022/09/24 02:11:12;;;;;;;2.90;2.70;;;;;;;14.61;69.91;95275.41;5094798;28;20632;-82
2022/09/24 02:13:43;;;;;;;7.05;2.75;;;;;;;14.62;69.95;95274.41;5094957;28;20220;-82
2022/09/24 02:16:14;;;;;;;3.17;2.78;;;;;;;14.64;69.61;95272.38;5093896;28;20228;-82
2022/09/24 02:18:46;;;;;;;4.85;2.83;;;;;;;14.66;69.42;95272.19;5094810;28;20236;-82
2022/09/24 02:21:14;;;;;;;3.30;2.78;;;;;;;14.67;69.39;95260.81;5094851;28;20617;-82
2022/09/24 02:23:47;;;;;;;3.80;3.00;;;;;;;14.70;69.35;95261.19;5080324;28;20274;-82
2022/09/24 02:26:14;;;;;;;3.85;3.08;;;;;;;14.73;69.42;95263.38;5073682;28;20282;-82
2022/09/24 02:28:40;;;;;;;3.85;3.05;;;;;;;14.73;69.24;95265.16;5073997;28;20200;-83
2022/09/24 02:31:13;;;;;;;5.57;2.92;;;;;;;14.71;69.42;95267.16;5073998;28;20311;-82
2022/09/24 02:36:27;;;;;;;3.00;2.70;;;;;;;14.66;69.51;95261.81;5073522;28;20731;-82
2022/09/24 02:38:54;;;;;;;3.40;3.10;;;;;;;14.65;69.36;95257.63;5073800;28;20196;-82
2022/09/24 02:41:22;;;;;;;4.35;2.88;;;;;;;14.67;69.46;95259.03;5072914;28;20255;-83
2022/09/24 02:43:49;;;;;;;3.38;2.85;;;;;;;14.70;69.38;95252.63;5073360;28;20304;-82
2022/09/24 02:46:17;;;;;;;3.20;2.90;;;;;;;14.70;69.13;95253.41;5073871;28;20780;-82
2022/09/24 02:48:43;;;;;;;3.97;2.80;;;;;;;14.67;69.44;95259.03;5073662;28;20247;-82
2022/09/24 02:51:10;;;;;;;2.97;2.78;;;;;;;14.63;69.47;95252.66;5073948;28;20228;-82
2022/09/24 02:53:36;;;;;;;4.95;3.08;;;;;;;14.66;69.33;95254.84;5073511;28;20232;-82
2022/09/24 02:56:03;;;;;;;4.13;2.92;;;;;;;14.67;69.65;95247.84;5073419;28;20228;-82
2022/09/24 02:58:30;;;;;;;2.92;2.70;;;;;;;14.67;69.53;95248.66;5073323;28;20672;-82
2022/09/24 03:00:57;;;;;;;3.20;2.90;;;;;;;14.66;69.71;95243.69;5073376;28;20571;-83
2022/09/24 03:03:26;;;;;;;3.60;3.28;;;;;;;14.65;69.65;95245.47;5077478;28;20220;-82
2022/09/24 03:05:53;;;;;;;4.25;2.70;;;;;;;14.67;69.39;95240.09;5093839;28;20801;-83
2022/09/24 03:08:20;;;;;;;3.10;2.80;;;;;;;14.68;69.53;95236.50;5093941;28;20203;-82
2022/09/24 03:10:49;;;;;;;3.22;2.92;;;;;;;14.68;69.68;95244.25;5093945;28;20231;-82
2022/09/24 03:13:16;;;;;;;6.15;2.90;;;;;;;14.68;69.95;95241.69;5094412;28;20227;-82
2022/09/24 03:15:43;;;;;;;2.90;2.60;;;;;;;14.70;69.73;95244.84;5093330;28;20231;-82
2022/09/24 03:18:09;;;;;;;3.55;3.00;;;;;;;14.66;69.84;95239.28;5093473;28;20254;-82
2022/09/24 03:20:37;;;;;;;3.17;2.95;;;;;;;14.67;69.96;95240.88;5093819;28;20207;-82
2022/09/24 03:23:04;;;;;;;3.17;2.88;;;;;;;14.67;69.72;95246.06;5084586;28;20197;-82
2022/09/24 03:25:30;;;;;;;3.92;2.95;;;;;;;14.66;69.90;95244.47;5072691;28;20599;-82
2022/09/24 03:27:56;;;;;;;3.67;3.03;;;;;;;14.67;70.03;95248.66;5073496;28;20266;-82
2022/09/24 03:33:07;;;;;;;3.35;2.70;;;;;;;14.63;70.35;95254.47;5072639;28;20270;-82
2022/09/24 03:35:33;;;;;;;4.53;2.80;;;;;;;14.65;70.31;95249.88;5072324;28;20251;-82
2022/09/24 03:38:01;;;;;;;3.72;3.30;;;;;;;14.67;69.84;95253.84;5073449;28;20223;-82
2022/09/24 03:40:27;;;;;;;3.55;2.60;;;;;;;14.68;69.97;95246.84;5072770;28;20208;-82
2022/09/24 03:43:12;;;;;;;3.22;2.90;;;;;;;14.68;69.91;95242.47;5077286;28;20614;-81
2022/09/24 03:45:38;;;;;;;3.00;2.70;;;;;;;14.65;70.14;95242.88;5075331;28;20220;-82
2022/09/24 03:48:05;;;;;;;3.92;3.00;;;;;;;14.65;69.65;95236.91;5073010;28;20200;-82
2022/09/24 03:50:32;;;;;;;3.05;2.85;;;;;;;14.63;69.93;95242.28;5077469;28;20234;-81
2022/09/24 03:52:58;;;;;;;2.53;2.33;;;;;;;14.65;69.90;95237.69;5074340;28;20278;-80
2022/09/24 03:55:26;;;;;;;4.25;3.13;;;;;;;14.71;69.50;95238.66;5074286;28;20254;-82
2022/09/24 03:57:52;;;;;;;4.00;3.15;;;;;;;14.70;70.02;95237.88;5072748;28;20205;-81
2022/09/24 04:00:19;;;;;;;5.50;2.83;;;;;;;14.70;69.75;95237.88;5073017;28;20250;-82
2022/09/24 04:02:46;;;;;;;3.47;2.70;;;;;;;14.72;69.72;95227.28;5073014;28;20261;-80
2022/09/24 04:05:12;;;;;;;2.85;2.63;;;;;;;14.70;69.65;95226.72;5091391;28;20232;-81
2022/09/24 04:07:39;;;;;;;4.10;2.70;;;;;;;14.72;69.58;95227.28;5093379;28;20195;-82
2022/09/24 04:10:07;;;;;;;4.53;2.63;;;;;;;14.73;69.51;95229.69;5093054;28;20235;-81
2022/09/24 04:12:35;;;;;;;3.05;2.75;;;;;;;14.71;69.92;95223.91;5093380;28;20224;-81
2022/09/24 04:15:02;;;;;;;3.38;2.75;;;;;;;14.71;69.78;95220.53;5092859;28;20246;-81
2022/09/24 04:17:30;;;;;;;3.03;2.80;;;;;;;14.70;69.74;95216.34;5093547;28;20232;-81
2022/09/24 04:19:56;;;;;;;3.22;2.92;;;;;;;14.71;70.00;95210.16;5092807;28;20844;-81
2022/09/24 04:22:23;;;;;;;2.97;2.67;;;;;;;14.75;69.93;95219.91;5089069;28;20189;-81
2022/09/24 04:24:51;;;;;;;4.35;3.20;;;;;;;14.72;69.30;95220.31;5072496;28;20225;-81
2022/09/24 04:27:19;;;;;;;3.47;2.72;;;;;;;14.77;69.44;95212.72;5072791;28;20244;-80
2022/09/24 04:29:47;;;;;;;4.57;3.17;;;;;;;14.78;69.15;95214.31;5072914;28;20204;-81
2022/09/24 04:32:13;;;;;;;3.33;2.97;;;;;;;14.81;69.57;95216.47;5072327;28;20224;-81
2022/09/24 04:34:40;;;;;;;3.25;2.70;;;;;;;14.83;69.55;95217.03;5072346;28;20224;-82
2022/09/24 04:37:08;;;;;;;3.00;2.67;;;;;;;14.83;69.48;95217.03;5071673;28;20258;-81
2022/09/24 04:39:34;;;;;;;3.47;2.75;;;;;;;14.84;69.40;95213.44;5072291;28;20291;-81
2022/09/24 04:42:01;;;;;;;3.17;2.88;;;;;;;14.84;69.56;95217.81;5072605;28;20254;-82
2022/09/24 04:44:27;;;;;;;7.65;3.00;;;;;;;14.80;69.66;95216.69;5072324;28;20232;-80
2022/09/24 04:47:01;;;;;;;3.25;2.75;;;;;;;14.79;69.49;95221.06;5072158;28;20232;-82
2022/09/24 04:49:28;;;;;;;3.08;2.70;;;;;;;14.80;69.81;95208.91;5072848;28;20197;-81
2022/09/24 04:51:57;;;;;;;3.35;2.97;;;;;;;14.78;69.94;95201.34;5071636;28;20256;-82
2022/09/24 04:54:23;;;;;;;3.25;2.78;;;;;;;14.77;70.80;95206.75;5073037;28;20221;-81
2022/09/24 04:56:50;;;;;;;3.05;2.70;;;;;;;14.77;70.89;95210.13;5072542;28;20576;-80
2022/09/24 04:59:16;;;;;;;3.55;2.70;;;;;;;14.80;70.57;95201.94;5072724;28;20204;-81
2022/09/24 05:01:43;;;;;;;3.78;2.78;;;;;;;14.85;70.32;95201.28;5072237;28;20263;-81
2022/09/24 05:04:10;;;;;;;5.47;3.15;;;;;;;14.88;70.10;95200.06;5083834;28;20767;-81
2022/09/24 05:06:37;;;;;;;3.78;2.88;;;;;;;14.90;70.04;95200.63;5096077;28;20231;-81
2022/09/24 05:09:03;;;;;;;2.88;2.67;;;;;;;14.92;70.01;95189.06;5096327;28;20222;-80
2022/09/24 05:11:30;;;;;;;3.22;2.90;;;;;;;14.92;70.22;95198.63;5096106;28;20250;-80
2022/09/24 05:13:56;;;;;;;3.47;2.90;;;;;;;14.88;70.35;95195.66;5096127;28;20273;-81
2022/09/24 05:16:23;;;;;;;3.20;2.90;;;;;;;14.83;70.78;95201.47;5095475;28;20231;-81
2022/09/24 05:18:49;;;;;;;4.78;2.60;;;;;;;14.81;70.84;95197.53;5096111;28;20617;-82
2022/09/24 05:21:17;;;;;;;4.75;2.95;;;;;;;14.85;70.34;95196.09;5095784;28;20664;-81
2022/09/24 05:23:43;;;;;;;3.95;2.95;;;;;;;14.82;70.67;95193.91;5081036;28;20213;-81
2022/09/24 05:28:54;;;;;;;3.30;3.00;;;;;;;14.77;70.95;95199.75;5075121;28;20204;-81
2022/09/24 05:31:20;;;;;;;3.28;2.95;;;;;;;14.78;70.70;95201.34;5075430;28;20196;-82
2022/09/24 05:33:46;;;;;;;2.90;2.70;;;;;;;14.76;71.09;95205.94;5075128;28;20650;-80
2022/09/24 05:36:13;;;;;;;3.33;3.03;;;;;;;14.76;71.66;95192.19;5075213;28;20605;-80
2022/09/24 05:38:41;;;;;;;5.28;3.10;;;;;;;14.80;70.82;95196.75;5074815;28;20212;-82
2022/09/24 05:41:07;;;;;;;3.35;2.90;;;;;;;14.84;71.38;95199.69;5074864;28;20205;-81
2022/09/24 05:43:33;;;;;;;3.47;3.00;;;;;;;14.88;70.84;95200.06;5074885;28;20256;-82
2022/09/24 05:46:02;;;;;;;3.45;2.97;;;;;;;14.92;70.86;95198.63;5075012;28;20232;-81
2022/09/24 05:48:28;;;;;;;4.55;3.00;;;;;;;14.93;71.04;95201.00;5074847;28;20201;-81
2022/09/24 05:50:55;;;;;;;4.53;3.03;;;;;;;14.96;70.77;95195.41;5074750;28;20209;-81
2022/09/24 05:53:22;;;;;;;4.47;3.20;;;;;;;15.01;70.80;95208.50;5074189;28;20220;-80
2022/09/24 05:55:50;;;;;;;3.33;3.08;;;;;;;15.05;70.70;95206.28;5074761;28;20233;-81
2022/09/24 05:58:17;;;;;;;4.22;3.45;;;;;;;15.07;70.79;95202.47;5074447;28;20212;-81
2022/09/24 06:00:43;;;;;;;3.42;3.13;;;;;;;15.10;70.45;95209.84;5074776;28;20568;-82
2022/09/24 06:03:12;;;;;;;4.88;3.97;;;;;;;15.13;70.56;95206.81;5076515;28;20204;-80
2022/09/24 06:05:39;;;;;;;3.22;2.92;;;;;;;15.17;70.46;95208.00;5094917;28;20224;-81
2022/09/24 06:08:07;;;;;;;3.45;3.10;;;;;;;15.19;70.07;95205.97;5095177;28;20208;-82
2022/09/24 06:10:34;;;;;;;4.05;3.00;;;;;;;15.22;70.15;95204.72;5094951;28;20200;-80
2022/09/24 06:13:02;;;;;;;4.90;2.90;;;;;;;15.19;70.60;95202.59;5095456;28;20215;-82
2022/09/24 06:15:29;;;;;;;6.55;3.50;;;;;;;15.25;70.23;95212.09;5094031;28;20234;-81
2022/09/24 06:17:56;;;;;;;3.40;3.08;;;;;;;15.25;69.98;95204.31;5095181;28;20717;-81
2022/09/24 06:20:23;;;;;;;3.53;2.92;;;;;;;15.33;69.80;95217.00;5094988;28;20200;-82
2022/09/24 06:22:49;;;;;;;3.38;3.03;;;;;;;15.41;69.57;95215.91;5088153;28;20204;-81
2022/09/24 06:25:16;;;;;;;3.53;3.15;;;;;;;15.48;69.13;95212.25;5074340;28;20297;-81
2022/09/24 06:27:42;;;;;;;3.22;2.92;;;;;;;15.58;68.97;95211.78;5075478;28;20209;-80
2022/09/24 06:30:11;;;;;;;3.80;3.00;;;;;;;15.66;68.74;95210.69;5074617;28;20204;-82
2022/09/24 06:32:37;;;;;;;3.20;2.90;;;;;;;15.67;68.86;95212.28;5074184;28;20311;-81
2022/09/24 06:35:04;;;;;;;4.20;3.40;;;;;;;15.72;69.43;95217.63;5073992;28;20270;-82
2022/09/24 06:37:31;;;;;;;3.03;2.83;;;;;;;15.73;68.80;95219.22;5074459;28;20208;-81
2022/09/24 06:39:58;;;;;;;3.25;2.95;;;;;;;15.76;68.58;95214.38;5074194;28;20266;-81
2022/09/24 06:42:25;;;;;;;3.92;3.05;;;;;;;15.72;67.95;95217.63;5074420;28;20204;-82
2022/09/24 06:44:52;;;;;;;4.25;3.80;;;;;;;15.73;68.07;95214.81;5073335;28;20240;-80
2022/09/24 06:47:19;;;;;;;3.38;3.03;;;;;;;15.70;68.24;95211.84;5073755;28;20274;-81
2022/09/24 06:49:47;;;;;;;3.25;2.95;;;;;;;15.76;68.18;95218.78;5073330;28;20201;-81
2022/09/24 06:52:14;;;;;;;3.30;3.00;;;;;;;15.78;68.08;95227.91;5073462;28;20266;-81
2022/09/24 06:54:40;;;;;;;4.47;3.05;;;;;;;15.81;68.22;95224.88;5074048;28;20225;-79
2022/09/24 06:57:07;;;;;;;4.40;3.22;;;;;;;15.86;68.42;95224.25;5073955;28;20236;-82
2022/09/24 06:59:33;;;;;;;5.85;5.25;;;;;;;15.86;69.04;95227.63;5073493;28;20228;-82
2022/09/24 07:02:00;;;;;;;8.52;7.38;;;;;;;15.87;68.88;95231.03;5073381;28;20201;-80
2022/09/24 07:04:27;;;;;;;11.55;10.30;;;;;;;15.87;69.38;95225.84;5085981;28;20226;-80
2022/09/24 07:09:40;;;;;;;6.72;4.38;;;;;;;15.80;69.95;95227.69;5094601;28;20203;-80
2022/09/24 07:12:07;;;;;;;4.30;3.90;;;;;;;15.82;69.99;95233.47;5093300;28;20611;-81
2022/09/24 07:14:34;;;;;;;6.18;3.60;;;;;;;15.83;70.04;95235.06;5093418;28;20223;-82
2022/09/24 07:17:00;;;;;;;3.53;3.20;;;;;;;15.83;70.24;95229.88;5093342;28;20297;-81
2022/09/24 07:19:28;;;;;;;8.55;3.53;;;;;;;15.82;70.64;95239.47;5093855;28;20204;-81
2022/09/24 07:21:54;;;;;;;4.03;3.63;;;;;;;15.83;70.71;95241.03;5093248;28;20257;-81
2022/09/24 07:24:21;;;;;;;3.30;3.00;;;;;;;15.85;70.67;95240.81;5073565;28;20216;-81
2022/09/24 07:26:47;;;;;;;5.15;3.50;;;;;;;15.86;71.01;95239.81;5072570;28;20232;-80
2022/09/24 07:29:13;;;;;;;3.25;2.95;;;;;;;15.82;71.86;95246.44;5073187;28;20255;-81
2022/09/24 07:31:40;;;;;;;3.85;3.30;;;;;;;15.79;72.33;95242.47;5072887;28;20201;-80
2022/09/24 07:34:07;;;;;;;5.20;3.60;;;;;;;15.79;71.89;95241.69;5072971;28;20324;-82
2022/09/24 07:36:35;;;;;;;3.95;3.45;;;;;;;15.81;71.93;95250.06;5077336;28;20249;-80
2022/09/24 07:39:01;;;;;;;5.90;5.00;;;;;;;15.80;71.97;95257.03;5077330;28;20204;-81
2022/09/24 07:41:28;;;;;;;6.93;6.25;;;;;;;15.81;71.77;95256.03;5074649;28;20204;-79
2022/09/24 07:43:55;;;;;;;7.18;5.85;;;;;;;15.80;72.26;95259.66;5073669;28;20228;-81
2022/09/24 07:46:23;;;;;;;10.15;6.25;;;;;;;15.81;72.15;95258.63;5073285;28;20768;-81
2022/09/24 07:48:49;;;;;;;5.80;5.20;;;;;;;15.82;72.58;95265.41;5074057;28;20205;-81
2022/09/24 07:51:16;;;;;;;6.43;4.82;;;;;;;15.85;72.60;95261.59;5073292;28;20208;-82
2022/09/24 07:53:43;;;;;;;8.63;6.35;;;;;;;15.82;73.47;95268.00;5073781;28;20234;-81
2022/09/24 07:56:10;;;;;;;10.70;7.00;;;;;;;15.83;73.36;95274.78;5073111;28;20712;-80
2022/09/24 07:58:36;;;;;;;10.63;9.52;;;;;;;15.83;73.76;95277.38;5073615;28;20611;-82
2022/09/24 08:01:03;;;;;;;13.15;11.25;;;;;;;15.77;74.79;95275.69;5073376;28;20204;-82
2022/09/24 08:03:30;;;;;;;9.38;8.35;;;;;;;15.72;77.35;95283.31;5078021;28;20215;-82
2022/09/24 08:05:58;;;;;;;7.90;5.90;;;;;;;15.64;79.44;95280.19;5093442;28;20259;-81
2022/09/24 08:08:25;;;;;;;6.35;5.30;;;;;;;15.58;80.89;95281.06;5093823;28;20207;-81
2022/09/24 08:10:53;;;;;;;4.53;4.13;;;;;;;15.56;79.81;95278.69;5094897;28;20628;-82
2022/09/24 08:13:20;;;;;;;5.13;4.20;;;;;;;15.58;81.64;95275.88;5094002;28;20228;-81
2022/09/24 08:15:46;;;;;;;5.63;4.53;;;;;;;15.63;81.94;95288.97;5093061;28;20227;-82
2022/09/24 08:18:13;;;;;;;4.82;4.40;;;;;;;15.66;82.61;95285.97;5092946;28;20447;-81
2022/09/24 08:20:39;;;;;;;4.88;4.25;;;;;;;15.64;83.16;95287.97;5093118;28;20238;-81
2022/09/24 08:23:08;;;;;;;5.25;4.20;;;;;;;15.62;82.35;95282.19;5083454;28;20196;-82
2022/09/24 08:25:35;;;;;;;4.40;4.00;;;;;;;15.62;82.97;95283.00;5073345;28;20243;-81
2022/09/24 08:28:03;;;;;;;5.25;4.35;;;;;;;15.66;82.70;95284.16;5072539;28;20223;-81
2022/09/24 08:30:30;;;;;;;4.88;4.43;;;;;;;15.68;82.81;95278.75;5073736;28;20235;-81
2022/09/24 08:32:57;;;;;;;5.10;4.65;;;;;;;15.68;84.20;95284.75;5072566;28;20220;-81
2022/09/24 08:35:24;;;;;;;4.60;3.72;;;;;;;15.71;82.96;95289.50;5072079;28;20263;-81
2022/09/24 08:37:50;;;;;;;5.22;4.72;;;;;;;15.70;84.19;95289.72;5072753;28;20207;-80
2022/09/24 08:40:20;;;;;;;7.68;4.50;;;;;;;15.72;85.02;95290.31;5071972;28;20242;-82
2022/09/24 08:42:51;;;;;;;4.97;4.47;;;;;;;15.72;85.55;95285.13;5074095;28;20769;-82
2022/09/24 08:48:12;;;;;;;5.72;4.60;;;;;;;15.76;85.02;95284.47;5074508;28;20282;-82
2022/09/24 08:50:46;;;;;;;4.75;4.35;;;;;;;15.76;85.81;95284.47;5074600;28;20214;-82
2022/09/24 08:53:19;;;;;;;24.23;20.98;;;;;;;15.82;86.03;95281.00;5073759;28;20220;-82
2022/09/24 08:55:47;;;;;;;10.80;9.73;;;;;;;15.85;86.18;95277.19;5073693;28;20256;-82
2022/09/24 08:58:28;;;;;;;5.93;5.43;;;;;;;15.88;87.38;95289.72;5074874;28;20240;-82
2022/09/24 09:01:02;;;;;;;5.00;4.55;;;;;;;15.94;86.86;95291.47;5074759;28;20197;-82
2022/09/24 09:03:36;;;;;;;7.57;6.63;;;;;;;15.92;87.95;95293.47;5081120;28;20207;-82
2022/09/24 09:06:10;;;;;;;12.20;10.90;;;;;;;15.96;88.23;95294.66;5095159;28;20227;-82
2022/09/24 09:08:46;;;;;;;8.18;7.35;;;;;;;16.03;86.65;95297.16;5095627;28;20195;-82
2022/09/24 09:11:16;;;;;;;5.85;5.35;;;;;;;16.08;86.69;95303.28;5094938;28;20633;-82
2022/09/24 09:13:49;;;;;;;5.25;4.75;;;;;;;16.11;86.73;95302.84;5095204;28;20228;-82
2022/09/24 09:16:23;;;;;;;5.40;4.90;;;;;;;16.16;86.89;95304.81;5094053;28;20239;-82
2022/09/24 09:18:51;;;;;;;5.25;4.75;;;;;;;16.15;86.76;95311.81;5094853;28;20621;-82
2022/09/24 09:21:25;;;;;;;5.60;5.10;;;;;;;16.15;86.65;95316.22;5094873;28;20293;-82
2022/09/24 09:23:55;;;;;;;5.30;4.80;;;;;;;16.11;86.53;95310.66;5079051;28;20239;-82
2022/09/24 09:26:21;;;;;;;5.38;4.88;;;;;;;16.16;85.92;95310.00;5074282;28;20262;-82
2022/09/24 09:28:49;;;;;;;4.95;4.47;;;;;;;16.24;85.40;95307.09;5076133;28;20201;-82
2022/09/24 09:31:28;;;;;;;5.30;4.78;;;;;;;16.27;87.01;95309.25;5073468;28;20201;-82
2022/09/24 09:34:15;;;;;;;5.05;4.50;;;;;;;16.27;86.72;95308.47;5074174;28;20224;-82
2022/09/24 09:36:54;;;;;;;5.95;4.80;;;;;;;16.28;85.48;95302.25;5073564;28;20233;-82
2022/09/24 09:39:36;;;;;;;6.65;4.38;;;;;;;16.19;85.29;95307.75;5074091;28;20234;-82
2022/09/24 09:42:15;;;;;;;5.13;4.70;;;;;;;16.24;85.45;95318.28;5073487;28;20200;-82
2022/09/24 09:44:43;;;;;;;6.05;4.90;;;;;;;16.24;85.63;95313.09;5073949;28;20235;-82
2022/09/24 09:47:24;;;;;;;4.30;3.90;;;;;;;16.17;85.56;95314.97;5073526;28;20237;-82
2022/09/24 09:49:53;;;;;;;4.13;3.78;;;;;;;16.17;85.27;95319.34;5075035;28;20201;-81
2022/09/24 09:52:22;;;;;;;4.05;3.75;;;;;;;16.15;84.82;95324.00;5077281;28;20213;-80
2022/09/24 09:54:49;;;;;;;11.23;10.13;;;;;;;16.14;85.86;95319.81;5077937;28;20263;-80
2022/09/24 09:57:17;;;;;;;4.88;4.38;;;;;;;16.07;84.42;95303.50;5077528;28;20263;-82
2022/09/24 09:59:46;;;;;;;6.63;5.97;;;;;;;16.05;85.78;95319.31;5077045;28;20204;-81
2022/09/24 10:02:25;;;;;;;5.78;4.75;;;;;;;16.12;85.42;95312.25;5078426;28;20201;-80
2022/09/24 10:04:55;;;;;;;5.10;4.60;;;;;;;16.18;86.19;95310.56;5093157;28;20215;-82
2022/09/24 10:07:25;;;;;;;4.88;4.30;;;;;;;16.11;86.15;95310.66;5098622;28;20615;-82
2022/09/24 10:10:06;;;;;;;4.65;4.25;;;;;;;16.17;86.99;95314.97;5098005;28;20200;-82
2022/09/24 10:12:32;;;;;;;4.55;3.58;;;;;;;16.19;86.19;95318.13;5098081;28;20211;-82
2022/09/24 10:15:01;;;;;;;5.38;4.32;;;;;;;16.25;86.32;95313.88;5097131;28;20232;-80
2022/09/24 10:17:36;;;;;;;4.05;3.75;;;;;;;16.27;87.73;95313.66;5097541;28;20659;-82
2022/09/24 10:20:09;;;;;;;6.45;4.32;;;;;;;16.28;86.60;95310.84;5097949;28;20207;-79
2022/09/24 10:22:37;;;;;;;4.65;4.00;;;;;;;16.31;86.46;95317.41;5092136;28;20201;-81
2022/09/24 10:25:04;;;;;;;4.60;3.85;;;;;;;16.33;88.61;95318.00;5084097;22;20233;-80
2022/09/24 10:27:34;;;;;;;13.73;12.35;;;;;;;16.36;88.00;95314.94;5054111;28;20205;-83
2022/09/24 10:32:56;;;;;;;8.15;7.35;;;;;;;16.29;89.14;95316.84;5053902;28;20200;-82
2022/09/24 10:35:27;;;;;;;7.22;6.50;;;;;;;16.27;89.40;95314.47;5053469;28;20283;-81
2022/09/24 10:37:55;;;;;;;4.93;4.50;;;;;;;16.22;88.46;95311.72;5053851;28;20298;-83
2022/09/24 10:40:24;;;;;;;5.50;5.00;;;;;;;16.20;87.93;95311.13;5053012;28;20751;-80
2022/09/24 10:43:02;;;;;;;6.20;4.82;;;;;;;16.14;89.28;95320.59;5053767;28;20284;-81
2022/09/24 10:45:49;;;;;;;5.60;5.00;;;;;;;16.06;90.11;95320.88;5053046;28;20233;-80
2022/09/24 10:48:22;;;;;;;5.47;4.95;;;;;;;16.06;89.75;95315.69;5053227;28;20228;-79
2022/09/24 10:50:55;;;;;;;5.47;4.97;;;;;;;16.02;92.89;95311.94;5053055;28;20202;-81
2022/09/24 10:53:33;;;;;;;5.55;5.05;;;;;;;16.10;90.73;95316.84;5053088;28;20205;-79
2022/09/24 10:56:05;;;;;;;5.97;4.68;;;;;;;16.17;89.93;95316.75;5052558;28;20228;-81
2022/09/24 10:58:49;;;;;;;4.85;4.40;;;;;;;16.17;90.92;95324.56;5053736;28;20208;-81
2022/09/24 11:01:21;;;;;;;5.88;5.30;;;;;;;16.19;90.05;95319.94;5052128;28;20212;-80
2022/09/24 11:04:08;;;;;;;8.77;7.97;;;;;;;16.20;90.87;95329.31;5052742;28;20198;-82
2022/09/24 11:06:47;;;;;;;8.07;7.38;;;;;;;16.21;90.29;95323.13;5052348;28;20233;-78
2022/09/24 11:09:24;;;;;;;6.90;6.30;;;;;;;16.22;91.18;95322.91;5052879;28;20673;-80
2022/09/24 11:12:02;;;;;;;7.68;6.97;;;;;;;16.21;91.51;95326.50;5052319;28;20241;-79
2022/09/24 11:14:56;;;;;;;5.65;5.15;;;;;;;16.21;92.09;95321.31;5052387;28;20217;-79
2022/09/24 11:17:32;;;;;;;6.30;5.72;;;;;;;16.17;93.51;95319.34;5052078;28;20263;-81
2022/09/24 11:20:23;;;;;;;6.47;5.88;;;;;;;16.22;93.37;95322.09;5052645;28;20201;-81
2022/09/24 11:23:20;;;;;;;6.55;6.00;;;;;;;16.32;93.33;95311.22;5052498;28;20562;-79
2022/09/24 11:25:54;;;;;;;6.80;5.60;;;;;;;16.36;94.17;95312.34;5050879;28;20229;-81
2022/09/24 11:28:36;;;;;;;6.53;5.93;;;;;;;16.40;95.74;95308.28;5052353;28;20201;-80
2022/09/24 11:31:11;;;;;;;7.50;6.53;;;;;;;16.32;99.40;95313.81;5052070;28;20276;-81
2022/09/24 11:33:55;;;;;;;6.85;6.05;;;;;;;16.27;97.51;95311.06;5052057;28;20787;-80
2022/09/24 11:36:41;;;;;;;6.57;5.97;;;;;;;16.33;94.97;95310.19;5051785;28;20252;-81
2022/09/24 11:39:22;;;;;;;6.55;5.95;;;;;;;16.36;94.38;95302.75;5052143;28;20259;-81
2022/09/24 11:41:58;;;;;;;6.40;5.82;;;;;;;16.38;94.60;95311.13;5052179;28;20267;-81
2022/09/24 11:45:04;;;;;;;8.75;6.63;;;;;;;16.42;93.58;95304.47;5052252;28;20643;-81
2022/09/24 11:47:52;;;;;;;13.75;8.40;;;;;;;16.46;94.38;95307.44;5021371;28;20270;-83
2022/09/24 11:50:33;;;;;;;9.52;6.95;;;;;;;16.47;93.85;95306.41;5051956;28;20217;-83
2022/09/24 11:53:06;;;;;;;10.93;7.07;;;;;;;16.47;92.65;95299.41;5052128;28;20201;-83
2022/09/24 11:55:37;;;;;;;13.38;7.57;;;;;;;16.52;92.04;95301.38;5051573;28;20248;-82
2022/09/24 11:58:11;;;;;;;7.47;6.43;;;;;;;16.53;91.59;95308.16;5052450;28;20621;-82
2022/09/24 12:00:45;;;;;;;19.15;14.23;;;;;;;16.51;92.12;95303.16;5051986;28;20196;-82
2022/09/24 12:03:20;;;;;;;11.00;10.00;;;;;;;16.55;91.64;95306.09;5052297;28;20251;-82
2022/09/24 12:05:51;;;;;;;7.45;6.75;;;;;;;16.52;91.72;95307.34;5051377;28;20233;-82